createdAt,value
2018-12-19T00:02:08.564Z,20.87
2018-12-19T00:04:36.905Z,21.93
2018-12-19T00:07:05.294Z,21.30
2018-12-19T00:09:33.620Z,20.67
2018-12-19T00:12:01.961Z,21.70
2018-12-19T00:14:30.356Z,23.20
2018-12-19T00:16:58.817Z,22.03
2018-12-19T00:19:27.200Z,22.60
2018-12-19T00:21:55.541Z,23.33
2018-12-19T00:24:23.893Z,22.23
2018-12-19T00:26:52.301Z,23.33
2018-12-19T00:29:20.630Z,22.37
2018-12-19T00:31:48.962Z,23.50
2018-12-19T00:34:17.360Z,23.17
2018-12-19T00:36:45.691Z,22.50
2018-12-19T00:39:14.226Z,23.43
2018-12-19T00:41:42.659Z,23.73
2018-12-19T00:44:10.993Z,24.70
2018-12-19T00:46:39.386Z,24.63
2018-12-19T00:49:07.835Z,25.13
2018-12-19T00:51:36.190Z,25.70
2018-12-19T00:54:04.609Z,24.17
2018-12-19T00:56:32.962Z,24.77
2018-12-19T00:59:01.368Z,24.97
2018-12-19T01:01:29.731Z,24.70
2018-12-19T01:03:58.056Z,24.73
2018-12-19T01:06:26.562Z,24.70
2018-12-19T01:08:54.956Z,25.33
2018-12-19T01:11:23.426Z,24.97
2018-12-19T01:13:51.828Z,25.40
2018-12-19T01:16:20.310Z,25.50
2018-12-19T01:18:48.653Z,24.70
2018-12-19T01:21:17.048Z,25.07
2018-12-19T01:23:45.381Z,24.87
2018-12-19T01:26:13.741Z,26.17
2018-12-19T01:28:42.116Z,26.43
2018-12-19T01:31:10.530Z,27.20
2018-12-19T01:33:38.930Z,25.90
2018-12-19T01:36:07.266Z,25.20
2018-12-19T01:38:35.604Z,25.30
2018-12-19T01:41:04.128Z,26.43
2018-12-19T01:43:35.528Z,25.97
2018-12-19T01:46:03.934Z,26.03
2018-12-19T01:48:32.266Z,25.20
2018-12-19T01:51:00.617Z,26.13
2018-12-19T01:53:29.000Z,26.40
2018-12-19T01:55:57.624Z,26.30
2018-12-19T01:58:25.972Z,26.17
2018-12-19T02:00:54.356Z,26.43
2018-12-19T02:03:22.690Z,25.83
2018-12-19T02:05:51.322Z,26.60
2018-12-19T02:08:19.679Z,26.33
2018-12-19T02:10:48.014Z,27.07
2018-12-19T02:13:16.435Z,27.23
2018-12-19T02:15:44.759Z,28.23
2018-12-19T02:18:13.086Z,26.70
2018-12-19T02:20:41.480Z,27.63
2018-12-19T02:23:09.816Z,25.47
2018-12-19T02:25:38.197Z,26.80
2018-12-19T02:28:06.530Z,25.50
2018-12-19T02:30:35.037Z,24.87
2018-12-19T02:33:03.562Z,24.10
2018-12-19T02:35:31.935Z,24.97
2018-12-19T02:38:00.339Z,25.23
2018-12-19T02:40:28.709Z,24.93
2018-12-19T02:42:57.061Z,26.27
2018-12-19T02:45:25.567Z,24.47
2018-12-19T02:47:53.960Z,26.70
2018-12-19T02:50:22.298Z,26.70
2018-12-19T02:52:50.685Z,23.17
2018-12-19T02:55:19.555Z,26.17
2018-12-19T02:57:47.899Z,25.97
2018-12-19T03:00:16.305Z,24.63
2018-12-19T03:02:44.663Z,25.20
2018-12-19T03:05:13.143Z,25.63
2018-12-19T03:07:41.531Z,26.03
2018-12-19T03:10:09.937Z,26.33
2018-12-19T03:12:38.273Z,25.60
2018-12-19T03:15:06.881Z,25.93
2018-12-19T03:17:35.236Z,26.00
2018-12-19T03:20:03.808Z,25.47
2018-12-19T03:22:32.192Z,26.30
2018-12-19T03:25:00.523Z,27.33
2018-12-19T03:27:28.900Z,25.23
2018-12-19T03:29:57.241Z,26.90
2018-12-19T03:32:25.630Z,26.00
2018-12-19T03:34:54.185Z,26.60
2018-12-19T03:37:22.600Z,24.63
2018-12-19T03:39:51.001Z,26.37
2018-12-19T03:42:19.343Z,25.00
2018-12-19T03:44:47.822Z,25.10
2018-12-19T03:47:16.232Z,26.17
2018-12-19T03:49:44.685Z,25.00
2018-12-19T03:52:13.050Z,25.53
2018-12-19T03:54:41.405Z,27.27
2018-12-19T03:57:10.095Z,26.10
2018-12-19T03:59:38.457Z,26.57
2018-12-19T04:02:06.845Z,27.33
2018-12-19T04:04:35.227Z,27.17
2018-12-19T04:07:03.573Z,25.87
2018-12-19T04:09:32.147Z,26.23
2018-12-19T04:12:00.582Z,27.23
2018-12-19T04:14:28.982Z,26.43
2018-12-19T04:16:57.388Z,27.90
2018-12-19T04:19:25.732Z,28.17
2018-12-19T04:21:54.078Z,27.80
2018-12-19T04:24:22.461Z,28.63
2018-12-19T04:26:50.843Z,27.47
2018-12-19T04:29:19.175Z,28.40
2018-12-19T04:31:47.568Z,26.90
2018-12-19T04:34:15.894Z,27.37
2018-12-19T04:36:44.265Z,28.77
2018-12-19T04:39:12.693Z,28.13
2018-12-19T04:41:41.050Z,28.50
2018-12-19T04:44:09.407Z,28.60
2018-12-19T04:46:37.798Z,27.20
2018-12-19T04:49:06.152Z,28.50
2018-12-19T04:51:34.542Z,28.13
2018-12-19T04:54:02.948Z,26.77
2018-12-19T04:56:31.290Z,27.43
2018-12-19T04:58:59.692Z,25.33
2018-12-19T05:01:28.092Z,26.10
2018-12-19T05:03:56.472Z,29.83
2018-12-19T05:06:24.867Z,27.90
2018-12-19T05:08:54.162Z,27.37
2018-12-19T05:11:22.566Z,27.03
2018-12-19T05:13:50.912Z,26.67
2018-12-19T05:16:19.387Z,26.93
2018-12-19T05:18:47.905Z,26.30
2018-12-19T05:21:16.298Z,26.50
2018-12-19T05:23:44.641Z,27.17
2018-12-19T05:26:13.006Z,26.17
2018-12-19T05:28:41.398Z,25.80
2018-12-19T05:31:09.730Z,25.23
2018-12-19T05:33:38.079Z,24.73
2018-12-19T05:36:06.466Z,24.37
2018-12-19T05:38:34.820Z,22.80
2018-12-19T05:41:03.198Z,22.60
2018-12-19T05:43:31.537Z,19.80
2018-12-19T05:45:59.939Z,17.93
2018-12-19T05:48:28.256Z,16.37
2018-12-19T05:50:56.659Z,16.47
2018-12-19T05:53:25.173Z,16.17
2018-12-19T05:55:53.707Z,17.13
2018-12-19T05:58:22.047Z,16.50
2018-12-19T06:00:50.385Z,15.07
2018-12-19T06:03:18.822Z,16.10
2018-12-19T06:05:47.164Z,16.67
2018-12-19T06:08:15.583Z,16.53
2018-12-19T06:10:43.915Z,16.43
2018-12-19T06:13:12.266Z,16.33
2018-12-19T06:15:40.657Z,14.80
2018-12-19T06:18:09.051Z,15.13
2018-12-19T06:20:37.496Z,14.70
2018-12-19T06:23:05.934Z,16.57
2018-12-19T06:25:34.385Z,15.10
2018-12-19T06:28:02.874Z,15.73
2018-12-19T06:30:31.602Z,15.37
2018-12-19T06:32:59.994Z,15.20
2018-12-19T06:35:28.458Z,15.30
2018-12-19T06:37:56.805Z,15.57
2018-12-19T06:40:25.142Z,15.03
2018-12-19T06:42:53.563Z,14.87
2018-12-19T06:45:21.904Z,15.30
2018-12-19T06:47:50.238Z,15.97
2018-12-19T06:50:18.652Z,14.67
2018-12-19T06:52:46.986Z,15.17
2018-12-19T06:55:15.318Z,14.93
2018-12-19T06:57:43.702Z,15.23
2018-12-19T07:00:12.174Z,16.10
2018-12-19T07:02:40.570Z,15.10
2018-12-19T07:05:09.556Z,15.60
2018-12-19T07:07:37.908Z,14.90
2018-12-19T07:10:06.981Z,13.30
2018-12-19T07:12:35.390Z,16.17
2018-12-19T07:15:04.253Z,15.57
2018-12-19T07:17:32.588Z,15.57
2018-12-19T07:20:01.040Z,15.33
2018-12-19T07:22:29.368Z,15.77
2018-12-19T07:24:57.710Z,15.70
2018-12-19T07:27:26.116Z,15.37
2018-12-19T07:29:54.476Z,15.17
2018-12-19T07:32:22.846Z,15.07
2018-12-19T07:34:51.309Z,14.67
2018-12-19T07:39:54.440Z,15.40
2018-12-19T07:42:22.802Z,17.23
2018-12-19T07:44:51.207Z,24.57
2018-12-19T07:47:19.650Z,17.77
2018-12-19T07:49:48.012Z,17.00
2018-12-19T07:52:16.409Z,14.77
2018-12-19T07:54:45.365Z,14.00
2018-12-19T07:57:13.716Z,17.60
2018-12-19T07:59:42.174Z,13.87
2018-12-19T08:02:10.627Z,16.13
2018-12-19T08:04:39.072Z,15.87
2018-12-19T08:07:07.536Z,16.23
2018-12-19T08:09:35.982Z,16.03
2018-12-19T08:12:04.506Z,16.40
2018-12-19T08:14:32.852Z,15.70
2018-12-19T08:17:01.254Z,13.50
2018-12-19T08:19:29.611Z,16.30
2018-12-19T08:21:58.513Z,16.33
2018-12-19T08:24:26.960Z,16.60
2018-12-19T08:26:56.273Z,17.17
2018-12-19T08:29:24.624Z,17.20
2018-12-19T08:31:53.025Z,16.03
2018-12-19T08:34:21.351Z,14.90
2018-12-19T08:36:49.724Z,17.40
2018-12-19T08:39:18.401Z,16.17
2018-12-19T08:41:46.850Z,18.27
2018-12-19T08:44:15.208Z,18.50
2018-12-19T08:46:43.780Z,18.43
2018-12-19T08:49:12.218Z,15.50
2018-12-19T08:51:40.633Z,12.47
2018-12-19T08:54:09.036Z,15.30
2018-12-19T08:56:37.394Z,15.87
2018-12-19T08:59:05.804Z,15.10
2018-12-19T09:01:34.164Z,15.97
2018-12-19T09:04:02.567Z,15.47
2018-12-19T09:06:31.068Z,14.93
2018-12-19T09:08:59.451Z,16.13
2018-12-19T09:11:27.887Z,16.80
2018-12-19T09:13:56.691Z,15.40
2018-12-19T09:16:25.058Z,16.37
2018-12-19T09:18:53.454Z,15.17
2018-12-19T09:21:21.860Z,15.17
2018-12-19T09:23:50.195Z,15.37
2018-12-19T09:26:18.678Z,15.27
2018-12-19T09:28:47.850Z,15.87
2018-12-19T09:31:16.194Z,14.83
2018-12-19T09:33:44.627Z,12.03
2018-12-19T09:36:13.094Z,15.40
2018-12-19T09:38:41.488Z,16.00
2018-12-19T09:41:12.436Z,13.03
2018-12-19T09:43:40.326Z,13.97
2018-12-19T09:46:08.677Z,13.67
2018-12-19T09:48:37.020Z,13.53
2018-12-19T09:51:11.997Z,13.50
2018-12-19T09:53:40.352Z,14.63
2018-12-19T09:56:11.577Z,12.83
2018-12-19T09:58:39.966Z,13.10
2018-12-19T10:01:08.318Z,14.73
2018-12-19T10:03:36.688Z,14.50
2018-12-19T10:06:05.103Z,16.57
2018-12-19T10:08:33.530Z,16.43
2018-12-19T10:11:01.865Z,16.93
2018-12-19T10:13:30.265Z,13.83
2018-12-19T10:15:58.630Z,15.40
2018-12-19T10:18:26.979Z,13.53
2018-12-19T10:20:55.379Z,15.67
2018-12-19T10:23:24.162Z,15.17
2018-12-19T10:25:57.866Z,13.00
2018-12-19T10:28:31.705Z,14.33
2018-12-19T10:31:00.103Z,11.97
2018-12-19T10:33:28.504Z,12.43
2018-12-19T10:35:56.879Z,11.53
2018-12-19T10:38:25.207Z,13.80
2018-12-19T10:40:53.656Z,14.10
2018-12-19T10:43:25.054Z,16.73
2018-12-19T10:45:53.479Z,16.80
2018-12-19T10:48:21.836Z,15.27
2018-12-19T10:50:50.178Z,14.87
2018-12-19T10:53:18.597Z,13.20
2018-12-19T10:55:47.006Z,14.23
2018-12-19T10:58:21.912Z,14.87
2018-12-19T11:00:55.787Z,15.13
2018-12-19T11:03:24.152Z,14.57
2018-12-19T11:05:54.431Z,12.00
2018-12-19T11:08:23.119Z,14.37
2018-12-19T11:10:51.467Z,14.87
2018-12-19T11:13:19.806Z,15.90
2018-12-19T11:15:48.842Z,16.77
2018-12-19T11:18:17.190Z,16.30
2018-12-19T11:20:45.771Z,16.23
2018-12-19T11:23:14.140Z,17.63
2018-12-19T11:25:42.620Z,18.77
2018-12-19T11:28:11.258Z,18.60
2018-12-19T11:30:39.707Z,17.83
2018-12-19T11:33:08.032Z,19.90
2018-12-19T11:35:36.492Z,18.97
2018-12-19T11:38:04.836Z,18.93
2018-12-19T11:40:33.950Z,18.60
2018-12-19T11:43:02.359Z,18.53
2018-12-19T11:45:30.706Z,19.70
2018-12-19T11:47:59.076Z,19.17
2018-12-19T11:50:27.471Z,18.73
2018-12-19T11:52:55.820Z,18.23
2018-12-19T11:55:24.216Z,19.70
2018-12-19T11:57:52.618Z,20.07
2018-12-19T12:00:21.037Z,19.73
2018-12-19T12:02:49.384Z,16.60
2018-12-19T12:05:17.760Z,17.47
2018-12-19T12:07:46.125Z,18.53
2018-12-19T12:10:14.474Z,16.30
2018-12-19T12:12:42.890Z,18.50
2018-12-19T12:15:11.234Z,19.57
2018-12-19T12:17:39.619Z,14.63
2018-12-19T12:20:08.757Z,17.80
2018-12-19T12:22:37.214Z,16.10
2018-12-19T12:25:12.295Z,19.50
2018-12-19T12:27:40.646Z,17.57
2018-12-19T12:30:09.114Z,21.33
2018-12-19T12:32:38.491Z,19.27
2018-12-19T12:35:07.831Z,20.30
2018-12-19T12:37:36.191Z,21.37
2018-12-19T12:40:05.355Z,21.80
2018-12-19T12:42:33.805Z,16.80
2018-12-19T12:45:02.654Z,16.93
2018-12-19T12:47:31.085Z,22.13
2018-12-19T12:49:59.630Z,19.60
2018-12-19T12:52:27.973Z,21.67
2018-12-19T12:54:56.389Z,20.30
2018-12-19T12:57:24.742Z,21.53
2018-12-19T12:59:53.421Z,17.70
2018-12-19T13:02:21.850Z,15.20
2018-12-19T13:04:50.701Z,18.07
2018-12-19T13:07:19.257Z,17.10
2018-12-19T13:09:47.591Z,16.40
2018-12-19T13:12:15.938Z,16.13
2018-12-19T13:14:44.337Z,16.30
2018-12-19T13:17:13.279Z,14.70
2018-12-19T13:19:41.616Z,14.83
2018-12-19T13:22:10.041Z,16.17
2018-12-19T13:24:38.404Z,16.47
2018-12-19T13:27:06.750Z,12.67
2018-12-19T13:29:35.173Z,12.23
2018-12-19T13:32:03.543Z,14.47
2018-12-19T13:34:31.987Z,12.40
2018-12-19T13:37:00.539Z,16.40
2018-12-19T13:39:28.960Z,12.40
2018-12-19T13:41:57.350Z,15.33
2018-12-19T13:44:25.865Z,16.13
2018-12-19T13:46:54.244Z,15.63
2018-12-19T13:49:22.637Z,14.57
2018-12-19T13:51:51.001Z,15.77
2018-12-19T13:54:19.431Z,14.53
2018-12-19T13:56:47.902Z,14.23
2018-12-19T13:59:16.241Z,11.87
2018-12-19T14:01:44.591Z,10.37
2018-12-19T14:04:13.111Z,14.03
2018-12-19T14:06:41.493Z,9.20
2018-12-19T14:09:10.034Z,15.80
2018-12-19T14:11:38.373Z,16.03
2018-12-19T14:14:06.842Z,16.33
2018-12-19T14:16:35.317Z,18.17
2018-12-19T14:19:03.781Z,17.60
2018-12-19T14:21:32.197Z,15.23
2018-12-19T14:24:00.557Z,19.20
2018-12-19T14:26:28.904Z,17.30
2018-12-19T14:28:57.309Z,19.43
2018-12-19T14:31:25.647Z,17.73
2018-12-19T14:33:53.985Z,19.57
2018-12-19T14:36:22.447Z,14.87
2018-12-19T14:38:50.782Z,19.70
2018-12-19T14:41:19.131Z,16.87
2018-12-19T14:43:47.603Z,18.77
2018-12-19T14:46:15.937Z,20.80
2018-12-19T14:48:44.357Z,20.07
2018-12-19T14:51:13.228Z,18.23
2018-12-19T14:53:41.571Z,17.93
2018-12-19T14:56:09.920Z,18.17
2018-12-19T14:58:38.382Z,17.73
2018-12-19T15:01:06.714Z,17.87
2018-12-19T15:03:35.096Z,20.33
2018-12-19T15:06:03.745Z,16.93
2018-12-19T15:08:35.045Z,17.73
2018-12-19T15:11:03.775Z,18.60
2018-12-19T15:13:32.190Z,19.27
2018-12-19T15:16:01.644Z,20.03
2018-12-19T15:18:30.040Z,19.07
2018-12-19T15:20:58.564Z,19.30
2018-12-19T15:23:27.010Z,19.63
2018-12-19T15:25:55.436Z,19.37
2018-12-19T15:28:23.779Z,17.70
2018-12-19T15:30:52.117Z,18.30
2018-12-19T15:33:20.657Z,19.20
2018-12-19T15:35:49.046Z,19.43
2018-12-19T15:38:17.394Z,19.13
2018-12-19T15:40:45.854Z,17.03
2018-12-19T15:43:14.186Z,19.67
2018-12-19T15:45:42.562Z,18.93
2018-12-19T15:48:11.532Z,19.73
2018-12-19T15:50:39.946Z,19.70
2018-12-19T15:53:08.322Z,20.93
2018-12-19T15:55:36.686Z,20.03
2018-12-19T15:58:05.098Z,18.70
2018-12-19T16:00:33.466Z,18.37
2018-12-19T16:03:01.820Z,16.80
2018-12-19T16:05:30.204Z,19.80
2018-12-19T16:07:58.561Z,17.47
2018-12-19T16:10:26.960Z,17.77
2018-12-19T16:12:55.384Z,17.97
2018-12-19T16:15:24.169Z,18.03
2018-12-19T16:17:52.714Z,18.50
2018-12-19T16:20:21.134Z,18.40
2018-12-19T16:22:49.543Z,18.77
2018-12-19T16:25:17.894Z,18.13
2018-12-19T16:27:46.268Z,18.07
2018-12-19T16:30:14.666Z,18.40
2018-12-19T16:32:42.986Z,20.23
2018-12-19T16:35:11.469Z,19.30
2018-12-19T16:37:40.034Z,19.80
2018-12-19T16:40:08.658Z,19.50
2018-12-19T16:42:37.196Z,18.43
2018-12-19T16:45:06.360Z,19.83
2018-12-19T16:47:34.870Z,19.50
2018-12-19T16:50:03.945Z,17.87
2018-12-19T16:52:32.419Z,19.53
2018-12-19T16:55:00.826Z,19.50
2018-12-19T16:57:29.180Z,18.43
2018-12-19T16:59:57.661Z,19.30
2018-12-19T17:02:26.090Z,20.57
2018-12-19T17:04:54.429Z,20.53
2018-12-19T17:07:22.794Z,20.93
2018-12-19T17:09:51.182Z,21.67
2018-12-19T17:12:19.532Z,21.50
2018-12-19T17:14:48.454Z,18.07
2018-12-19T17:17:16.919Z,19.37
2018-12-19T17:19:45.287Z,16.77
2018-12-19T17:22:13.637Z,18.97
2018-12-19T17:24:42.044Z,20.50
2018-12-19T17:27:10.584Z,20.57
2018-12-19T17:29:38.943Z,20.20
2018-12-19T17:32:08.012Z,20.03
2018-12-19T17:34:36.429Z,19.53
2018-12-19T17:37:04.918Z,19.10
2018-12-19T17:39:33.428Z,21.03
2018-12-19T17:42:01.831Z,24.30
2018-12-19T17:44:30.198Z,22.43
2018-12-19T17:46:58.556Z,18.47
2018-12-19T17:49:27.124Z,16.50
2018-12-19T17:51:55.467Z,18.93
2018-12-19T17:54:23.782Z,20.03
2018-12-19T17:56:52.189Z,19.03
2018-12-19T17:59:20.547Z,18.77
2018-12-19T18:01:48.931Z,22.20
2018-12-19T18:04:17.904Z,18.90
2018-12-19T18:06:46.260Z,16.60
2018-12-19T18:09:15.039Z,18.70
2018-12-19T18:11:43.392Z,18.23
2018-12-19T18:14:11.853Z,17.63
2018-12-19T18:16:40.305Z,20.10
2018-12-19T18:19:08.617Z,19.13
2018-12-19T18:21:37.002Z,20.37
2018-12-19T18:24:05.419Z,19.07
2018-12-19T18:26:34.366Z,19.90
2018-12-19T18:29:02.846Z,20.13
2018-12-19T18:31:31.263Z,15.67
2018-12-19T18:33:59.640Z,19.30
2018-12-19T18:36:27.983Z,17.77
2018-12-19T18:38:56.431Z,19.53
2018-12-19T18:41:24.840Z,24.47
2018-12-19T18:43:53.209Z,25.53
2018-12-19T18:46:21.598Z,45.80
2018-12-19T18:48:49.954Z,33.53
2018-12-19T18:51:18.305Z,30.97
2018-12-19T18:53:46.723Z,20.77
2018-12-19T18:56:15.082Z,18.57
2018-12-19T18:58:43.437Z,18.67
2018-12-19T19:01:12.018Z,31.73
2018-12-19T19:03:40.456Z,26.27
2018-12-19T19:06:08.902Z,21.33
2018-12-19T19:08:37.347Z,15.70
2018-12-19T19:11:05.860Z,21.60
2018-12-19T19:13:34.375Z,22.13
2018-12-19T19:16:02.839Z,20.37
2018-12-19T19:18:31.260Z,17.13
2018-12-19T19:20:59.622Z,14.17
2018-12-19T19:23:27.981Z,16.87
2018-12-19T19:25:56.527Z,19.90
2018-12-19T19:28:24.861Z,22.37
2018-12-19T19:30:53.266Z,26.43
2018-12-19T19:33:21.613Z,23.83
2018-12-19T19:35:49.959Z,25.13
2018-12-19T19:38:18.359Z,27.47
2018-12-19T19:40:46.839Z,19.97
2018-12-19T19:43:15.187Z,20.00
2018-12-19T19:45:43.618Z,19.03
2018-12-19T19:48:11.959Z,27.23
2018-12-19T19:50:40.331Z,29.73
2018-12-19T19:53:08.723Z,30.80
2018-12-19T19:55:37.129Z,44.53
2018-12-19T19:58:05.475Z,44.93
2018-12-19T20:00:33.849Z,34.33
2018-12-19T20:03:02.771Z,27.73
2018-12-19T20:05:31.158Z,19.73
2018-12-19T20:07:59.549Z,20.97
2018-12-19T20:10:27.962Z,14.67
2018-12-19T20:12:56.378Z,38.77
2018-12-19T20:15:24.796Z,28.87
2018-12-19T20:17:53.343Z,19.93
2018-12-19T20:20:21.680Z,19.03
2018-12-19T20:22:50.093Z,11.30
2018-12-19T20:25:18.434Z,17.97
2018-12-19T20:27:46.781Z,27.00
2018-12-19T20:30:15.317Z,35.57
2018-12-19T20:32:43.679Z,33.50
2018-12-19T20:35:12.075Z,35.33
2018-12-19T20:37:40.473Z,40.47
2018-12-19T20:40:08.982Z,36.23
2018-12-19T20:42:37.485Z,30.00
2018-12-19T20:45:06.241Z,28.37
2018-12-19T20:47:34.593Z,26.53
2018-12-19T20:50:03.192Z,20.03
2018-12-19T20:52:31.619Z,20.73
2018-12-19T20:54:59.984Z,17.50
2018-12-19T20:57:28.359Z,19.83
2018-12-19T20:59:57.382Z,17.53
2018-12-19T21:02:25.889Z,17.93
2018-12-19T21:04:54.369Z,17.77
2018-12-19T21:07:22.805Z,18.63
2018-12-19T21:09:51.248Z,16.17
2018-12-19T21:12:19.587Z,17.03
2018-12-19T21:14:48.071Z,17.60
2018-12-19T21:17:21.939Z,16.60
2018-12-19T21:19:50.352Z,16.90
2018-12-19T21:22:18.679Z,16.73
2018-12-19T21:24:47.035Z,17.83
2018-12-19T21:27:15.436Z,17.20
2018-12-19T21:29:43.871Z,17.70
2018-12-19T21:32:12.905Z,16.80
2018-12-19T21:34:41.409Z,15.70
2018-12-19T21:37:09.778Z,17.63
2018-12-19T21:39:38.313Z,17.23
2018-12-19T21:42:06.817Z,19.40
2018-12-19T21:44:36.293Z,18.37
2018-12-19T21:47:04.749Z,19.50
2018-12-19T21:49:33.209Z,19.43
2018-12-19T21:52:01.556Z,19.97
2018-12-19T21:54:29.944Z,19.93
2018-12-19T21:56:58.289Z,19.70
2018-12-19T21:59:26.657Z,21.13
2018-12-19T22:01:55.201Z,20.30
2018-12-19T22:04:23.552Z,20.53
2018-12-19T22:06:51.995Z,20.33
2018-12-19T22:09:20.557Z,21.23
2018-12-19T22:11:48.945Z,19.00
2018-12-19T22:14:18.387Z,18.77
2018-12-19T22:16:58.984Z,20.70
2018-12-19T22:19:27.373Z,25.47
2018-12-19T22:21:55.812Z,25.40
2018-12-19T22:24:24.286Z,21.73
2018-12-19T22:26:52.890Z,21.33
2018-12-19T22:29:21.314Z,20.37
2018-12-19T22:31:49.685Z,21.23
2018-12-19T22:34:18.259Z,21.47
2018-12-19T22:36:46.774Z,20.10
2018-12-19T22:39:18.388Z,18.57
2018-12-19T22:41:47.566Z,20.07
2018-12-19T22:44:15.949Z,19.83
2018-12-19T22:46:44.389Z,17.53
2018-12-19T22:49:12.825Z,19.03
2018-12-19T22:51:41.248Z,19.67
2018-12-19T22:54:09.887Z,18.90
2018-12-19T22:56:38.363Z,19.67
2018-12-19T22:59:06.832Z,18.30
2018-12-19T23:01:41.369Z,19.17
2018-12-19T23:04:09.844Z,19.03
2018-12-19T23:06:38.386Z,18.57
2018-12-19T23:09:07.839Z,20.63
2018-12-19T23:11:36.412Z,18.40
2018-12-19T23:14:04.913Z,19.67
2018-12-19T23:16:33.653Z,19.43
2018-12-19T23:19:02.095Z,19.07
2018-12-19T23:21:30.812Z,18.63
2018-12-19T23:23:59.373Z,17.93
2018-12-19T23:26:27.980Z,18.67
2018-12-19T23:29:01.793Z,18.60
2018-12-19T23:31:30.308Z,18.33
2018-12-19T23:33:59.273Z,19.97
2018-12-19T23:36:27.790Z,19.20
2018-12-19T23:38:56.186Z,19.03
2018-12-19T23:41:24.548Z,19.60
2018-12-19T23:43:52.898Z,18.50
2018-12-19T23:46:21.322Z,19.23
2018-12-19T23:48:49.790Z,19.33
2018-12-19T23:51:18.348Z,19.00
2018-12-19T23:53:46.956Z,19.17
2018-12-19T23:56:15.399Z,18.60
2018-12-19T23:58:44.208Z,19.07
